createdAt,value
2018-12-26T00:01:34.580Z,100207.40
2018-12-26T00:04:06.024Z,100205.98
2018-12-26T00:06:37.391Z,100207.34
2018-12-26T00:09:09.170Z,100205.58
2018-12-26T00:11:40.560Z,100203.39
2018-12-26T00:14:11.919Z,100202.94
2018-12-26T00:16:44.275Z,100201.17
2018-12-26T00:19:15.638Z,100202.59
2018-12-26T00:21:46.976Z,100198.75
2018-12-26T00:24:18.673Z,100194.41
2018-12-26T00:26:50.316Z,100195.83
2018-12-26T00:29:21.736Z,100199.66
2018-12-26T00:31:53.091Z,100199.56
2018-12-26T00:34:24.537Z,100193.49
2018-12-26T00:36:55.988Z,100182.67
2018-12-26T00:39:27.439Z,100187.06
2018-12-26T00:41:58.790Z,100190.55
2018-12-26T00:44:30.242Z,100186.63
2018-12-26T00:47:01.601Z,100186.92
2018-12-26T00:49:33.041Z,100180.29
2018-12-26T00:52:04.399Z,100180.33
2018-12-26T00:54:35.859Z,100182.47
2018-12-26T00:57:07.301Z,100177.15
2018-12-26T00:59:38.955Z,100175.43
2018-12-26T01:02:10.295Z,100176.89
2018-12-26T01:04:41.736Z,100185.31
2018-12-26T01:07:13.135Z,100177.91
2018-12-26T01:09:44.539Z,100184.44
2018-12-26T01:12:16.342Z,100180.09
2018-12-26T01:14:47.778Z,100180.59
2018-12-26T01:17:19.303Z,100187.88
2018-12-26T01:19:50.871Z,100187.27
2018-12-26T01:22:22.532Z,100194.30
2018-12-26T01:24:53.966Z,100185.08
2018-12-26T01:27:25.318Z,100188.17
2018-12-26T01:29:56.791Z,100179.82
2018-12-26T01:32:28.223Z,100172.00
2018-12-26T01:34:59.745Z,100166.73
2018-12-26T01:37:31.234Z,100170.83
2018-12-26T01:40:02.682Z,100166.13
2018-12-26T01:42:34.059Z,100164.00
2018-12-26T01:45:06.191Z,100158.74
2018-12-26T01:47:37.547Z,100156.27
2018-12-26T01:50:08.990Z,100158.84
2018-12-26T01:52:41.498Z,100160.20
2018-12-26T01:55:12.960Z,100158.13
2018-12-26T01:57:44.341Z,100143.52
2018-12-26T02:00:15.753Z,100151.91
2018-12-26T02:02:47.152Z,100151.50
2018-12-26T02:05:18.648Z,100157.41
2018-12-26T02:07:50.042Z,100157.08
2018-12-26T02:10:21.429Z,100158.72
2018-12-26T02:12:52.872Z,100149.33
2018-12-26T02:15:24.263Z,100151.91
2018-12-26T02:17:55.657Z,100165.70
2018-12-26T02:20:27.349Z,100160.76
2018-12-26T02:22:58.757Z,100162.88
2018-12-26T02:25:30.162Z,100162.71
2018-12-26T02:28:01.556Z,100155.86
2018-12-26T02:30:32.976Z,100151.33
2018-12-26T02:33:04.350Z,100144.27
2018-12-26T02:35:35.812Z,100150.52
2018-12-26T02:38:07.472Z,100147.98
2018-12-26T02:40:38.961Z,100140.68
2018-12-26T02:43:10.411Z,100133.13
2018-12-26T02:45:41.846Z,100137.79
2018-12-26T02:48:13.538Z,100134.06
2018-12-26T02:50:44.955Z,100130.62
2018-12-26T02:53:16.299Z,100135.05
2018-12-26T02:55:47.699Z,100132.59
2018-12-26T02:58:19.175Z,100132.25
2018-12-26T03:00:50.618Z,100131.83
2018-12-26T03:03:21.977Z,100130.38
2018-12-26T03:05:54.750Z,100121.09
2018-12-26T03:08:26.104Z,100122.33
2018-12-26T03:10:58.488Z,100116.42
2018-12-26T03:13:29.930Z,100115.89
2018-12-26T03:16:01.314Z,100109.41
2018-12-26T03:18:33.102Z,100106.86
2018-12-26T03:21:04.856Z,100095.78
2018-12-26T03:23:36.992Z,100090.80
2018-12-26T03:26:08.414Z,100088.72
2018-12-26T03:28:39.761Z,100082.69
2018-12-26T03:31:11.484Z,100073.77
2018-12-26T03:33:43.604Z,100068.02
2018-12-26T03:36:15.105Z,100072.77
2018-12-26T03:38:46.759Z,100068.62
2018-12-26T03:41:18.214Z,100074.48
2018-12-26T03:43:50.480Z,100071.48
2018-12-26T03:46:22.149Z,100070.18
2018-12-26T03:48:53.626Z,100068.86
2018-12-26T03:51:25.003Z,100073.13
2018-12-26T03:53:56.347Z,100075.55
2018-12-26T03:56:27.734Z,100075.45
2018-12-26T03:58:59.120Z,100075.17
2018-12-26T04:01:30.561Z,100078.61
2018-12-26T04:04:01.920Z,100078.38
2018-12-26T04:06:33.365Z,100078.50
2018-12-26T04:09:06.508Z,100080.00
2018-12-26T04:11:38.174Z,100079.21
2018-12-26T04:14:09.722Z,100088.43
2018-12-26T04:16:41.354Z,100085.28
2018-12-26T04:19:12.875Z,100086.08
2018-12-26T04:21:44.716Z,100085.19
2018-12-26T04:24:16.473Z,100080.53
2018-12-26T04:26:47.905Z,100081.97
2018-12-26T04:29:19.327Z,100078.52
2018-12-26T04:31:51.032Z,100085.94
2018-12-26T04:34:22.415Z,100091.73
2018-12-26T04:36:53.816Z,100089.64
2018-12-26T04:39:25.203Z,100089.16
2018-12-26T04:41:56.918Z,100092.70
2018-12-26T04:44:28.606Z,100097.06
2018-12-26T04:47:00.101Z,100097.89
2018-12-26T04:49:31.523Z,100106.21
2018-12-26T04:52:02.940Z,100106.29
2018-12-26T04:54:34.288Z,100104.14
2018-12-26T04:57:06.042Z,100107.67
2018-12-26T04:59:37.421Z,100106.39
2018-12-26T05:02:08.839Z,100104.19
2018-12-26T05:04:40.240Z,100108.16
2018-12-26T05:07:11.705Z,100112.47
2018-12-26T05:09:43.188Z,100105.08
2018-12-26T05:12:14.689Z,100108.61
2018-12-26T05:14:46.029Z,100102.03
2018-12-26T05:17:17.909Z,100104.63
2018-12-26T05:19:49.529Z,100105.97
2018-12-26T05:22:21.028Z,100104.63
2018-12-26T05:24:52.367Z,100106.41
2018-12-26T05:27:23.758Z,100113.43
2018-12-26T05:29:55.159Z,100109.09
2018-12-26T05:32:26.618Z,100107.39
2018-12-26T05:34:59.311Z,100111.34
2018-12-26T05:37:30.718Z,100116.56
2018-12-26T05:40:02.083Z,100111.78
2018-12-26T05:42:33.487Z,100104.78
2018-12-26T05:45:05.374Z,100108.25
2018-12-26T05:47:37.120Z,100106.92
2018-12-26T05:50:08.467Z,100101.19
2018-12-26T05:52:39.907Z,100103.34
2018-12-26T05:55:11.301Z,100106.28
2018-12-26T05:57:43.253Z,100108.49
2018-12-26T06:00:15.227Z,100102.30
2018-12-26T06:02:46.631Z,100109.70
2018-12-26T06:05:18.069Z,100109.70
2018-12-26T06:07:49.646Z,100110.95
2018-12-26T06:10:21.043Z,100109.58
2018-12-26T06:12:52.467Z,100106.09
2018-12-26T06:15:23.838Z,100103.53
2018-12-26T06:17:55.243Z,100098.70
2018-12-26T06:20:26.939Z,100104.75
2018-12-26T06:22:58.427Z,100100.40
2018-12-26T06:25:31.795Z,100096.94
2018-12-26T06:28:03.200Z,100096.53
2018-12-26T06:30:34.997Z,100090.83
2018-12-26T06:33:07.422Z,100098.19
2018-12-26T06:35:39.295Z,100094.38
2018-12-26T06:38:10.740Z,100096.58
2018-12-26T06:40:42.141Z,100092.65
2018-12-26T06:43:13.535Z,100099.20
2018-12-26T06:45:45.234Z,100097.42
2018-12-26T06:48:16.651Z,100101.33
2018-12-26T06:50:48.042Z,100101.41
2018-12-26T06:53:19.892Z,100094.49
2018-12-26T06:55:51.247Z,100105.88
2018-12-26T06:58:22.686Z,100108.12
2018-12-26T07:00:54.061Z,100110.79
2018-12-26T07:03:26.165Z,100107.36
2018-12-26T07:05:57.669Z,100108.33
2018-12-26T07:08:29.077Z,100104.45
2018-12-26T07:11:00.472Z,100107.92
2018-12-26T07:13:31.885Z,100108.80
2018-12-26T07:16:03.607Z,100113.11
2018-12-26T07:18:35.100Z,100111.79
2018-12-26T07:21:06.769Z,100112.70
2018-12-26T07:23:38.205Z,100112.29
2018-12-26T07:26:09.591Z,100110.95
2018-12-26T07:28:40.994Z,100117.55
2018-12-26T07:31:12.399Z,100116.70
2018-12-26T07:33:44.118Z,100122.34
2018-12-26T07:36:15.532Z,100122.72
2018-12-26T07:38:47.006Z,100127.08
2018-12-26T07:41:18.578Z,100142.25
2018-12-26T07:43:50.612Z,100140.53
2018-12-26T07:46:22.030Z,100135.17
2018-12-26T07:48:53.753Z,100145.66
2018-12-26T07:51:27.228Z,100150.48
2018-12-26T07:53:58.672Z,100152.22
2018-12-26T07:56:30.072Z,100148.73
2018-12-26T07:59:01.523Z,100141.31
2018-12-26T08:01:33.004Z,100151.33
2018-12-26T08:04:04.500Z,100144.81
2018-12-26T08:06:36.694Z,100147.48
2018-12-26T08:09:08.102Z,100150.99
2018-12-26T08:11:42.081Z,100147.92
2018-12-26T08:14:13.457Z,100148.77
2018-12-26T08:16:44.863Z,100146.60
2018-12-26T08:19:16.267Z,100149.17
2018-12-26T08:21:47.662Z,100152.19
2018-12-26T08:24:19.135Z,100151.66
2018-12-26T08:26:50.562Z,100146.78
2018-12-26T08:29:21.971Z,100148.52
2018-12-26T08:31:53.704Z,100153.64
2018-12-26T08:34:25.516Z,100157.58
2018-12-26T08:36:57.348Z,100160.98
2018-12-26T08:39:28.882Z,100166.10
2018-12-26T08:42:00.286Z,100162.55
2018-12-26T08:44:31.688Z,100171.25
2018-12-26T08:47:03.832Z,100175.67
2018-12-26T08:49:35.319Z,100176.92
2018-12-26T08:52:07.356Z,100177.27
2018-12-26T08:54:38.829Z,100179.92
2018-12-26T08:57:10.621Z,100187.70
2018-12-26T08:59:42.031Z,100192.19
2018-12-26T09:02:13.449Z,100197.95
2018-12-26T09:04:45.274Z,100196.64
2018-12-26T09:07:16.654Z,100197.38
2018-12-26T09:09:48.080Z,100198.95
2018-12-26T09:12:19.731Z,100199.25
2018-12-26T09:14:51.230Z,100205.90
2018-12-26T09:17:22.927Z,100208.15
2018-12-26T09:19:54.397Z,100207.73
2018-12-26T09:22:25.769Z,100205.41
2018-12-26T09:24:57.172Z,100219.70
2018-12-26T09:27:28.659Z,100216.78
2018-12-26T09:30:00.396Z,100226.71
2018-12-26T09:32:31.769Z,100218.41
2018-12-26T09:35:03.289Z,100223.18
2018-12-26T09:37:34.711Z,100209.06
2018-12-26T09:40:06.699Z,100216.73
2018-12-26T09:42:38.089Z,100210.90
2018-12-26T09:45:09.630Z,100216.64
2018-12-26T09:47:40.991Z,100209.30
2018-12-26T09:50:12.677Z,100202.06
2018-12-26T09:52:44.560Z,100204.97
2018-12-26T09:55:17.037Z,100200.63
2018-12-26T09:57:50.483Z,100210.89
2018-12-26T10:00:21.861Z,100200.52
2018-12-26T10:02:56.267Z,100194.70
2018-12-26T10:05:27.644Z,100191.22
2018-12-26T10:07:59.411Z,100193.20
2018-12-26T10:10:31.267Z,100188.38
2018-12-26T10:13:02.711Z,100198.30
2018-12-26T10:15:34.164Z,100200.03
2018-12-26T10:18:06.659Z,100190.88
2018-12-26T10:20:38.094Z,100193.23
2018-12-26T10:23:09.877Z,100188.02
2018-12-26T10:25:41.764Z,100184.88
2018-12-26T10:28:13.479Z,100183.15
2018-12-26T10:30:44.920Z,100178.73
2018-12-26T10:33:17.042Z,100181.79
2018-12-26T10:35:48.423Z,100169.80
2018-12-26T10:38:19.926Z,100165.60
2018-12-26T10:40:51.292Z,100165.74
2018-12-26T10:43:22.672Z,100157.88
2018-12-26T10:45:54.452Z,100155.48
2018-12-26T10:48:25.913Z,100148.12
2018-12-26T10:50:57.299Z,100145.83
2018-12-26T10:53:29.129Z,100141.62
2018-12-26T10:56:00.588Z,100148.87
2018-12-26T10:58:32.937Z,100152.42
2018-12-26T11:01:04.416Z,100142.14
2018-12-26T11:03:38.449Z,100139.75
2018-12-26T11:06:10.892Z,100142.31
2018-12-26T11:08:42.451Z,100125.71
2018-12-26T11:11:14.460Z,100118.87
2018-12-26T11:13:45.836Z,100111.52
2018-12-26T11:16:17.363Z,100111.66
2018-12-26T11:18:49.687Z,100112.23
2018-12-26T11:21:21.134Z,100111.26
2018-12-26T11:23:52.577Z,100106.67
2018-12-26T11:26:24.015Z,100108.30
2018-12-26T11:28:55.692Z,100106.32
2018-12-26T11:31:27.071Z,100096.94
2018-12-26T11:33:58.538Z,100081.14
2018-12-26T11:36:30.022Z,100079.64
2018-12-26T11:39:01.731Z,100074.91
2018-12-26T11:41:33.559Z,100076.69
2018-12-26T11:44:04.967Z,100068.11
2018-12-26T11:46:36.335Z,100056.47
2018-12-26T11:49:07.775Z,100058.41
2018-12-26T11:51:39.258Z,100055.16
2018-12-26T11:54:10.744Z,100055.88
2018-12-26T11:56:42.195Z,100051.66
2018-12-26T11:59:13.553Z,100047.50
2018-12-26T12:01:46.455Z,100054.34
2018-12-26T12:04:17.884Z,100048.73
2018-12-26T12:06:49.320Z,100041.93
2018-12-26T12:09:20.890Z,100041.98
2018-12-26T12:11:52.349Z,100027.89
2018-12-26T12:14:24.895Z,100034.80
2018-12-26T12:16:56.257Z,100034.81
2018-12-26T12:19:27.681Z,100029.33
2018-12-26T12:21:59.509Z,100034.31
2018-12-26T12:24:31.224Z,100034.75
2018-12-26T12:27:02.949Z,100034.72
2018-12-26T12:29:36.108Z,100037.41
2018-12-26T12:32:09.876Z,100031.84
2018-12-26T12:34:41.293Z,100031.87
2018-12-26T12:37:13.080Z,100023.21
2018-12-26T12:39:44.595Z,100027.65
2018-12-26T12:42:16.238Z,100023.05
2018-12-26T12:44:48.121Z,100026.96
2018-12-26T12:47:20.095Z,100024.78
2018-12-26T12:49:51.631Z,100023.41
2018-12-26T12:52:23.072Z,100017.89
2018-12-26T12:54:54.534Z,100013.04
2018-12-26T12:57:25.975Z,100020.94
2018-12-26T12:59:57.863Z,100014.42
2018-12-26T13:02:29.310Z,100020.52
2018-12-26T13:05:01.235Z,100008.56
2018-12-26T13:07:32.586Z,100016.52
2018-12-26T13:10:06.104Z,100008.56
2018-12-26T13:12:39.450Z,100017.64
2018-12-26T13:15:11.240Z,100013.19
2018-12-26T13:17:42.601Z,100006.98
2018-12-26T13:20:14.059Z,100006.59
2018-12-26T13:22:45.494Z,100011.44
2018-12-26T13:25:19.343Z,100003.88
2018-12-26T13:27:50.748Z,100006.89
2018-12-26T13:30:22.215Z,100004.44
2018-12-26T13:32:53.727Z,100006.89
2018-12-26T13:35:25.346Z,100012.52
2018-12-26T13:37:57.135Z,100010.95
2018-12-26T13:40:28.693Z,100010.87
2018-12-26T13:43:00.274Z,100008.87
2018-12-26T13:45:32.042Z,100012.64
2018-12-26T13:48:03.631Z,100006.18
2018-12-26T13:50:35.055Z,100008.80
2018-12-26T13:53:06.486Z,100005.98
2018-12-26T13:55:38.418Z,100002.55
2018-12-26T13:58:10.117Z,100000.23
2018-12-26T14:00:41.569Z,100000.77
2018-12-26T14:03:13.453Z,99999.81
2018-12-26T14:05:44.896Z,100001.06
2018-12-26T14:08:16.633Z,100000.25
2018-12-26T14:10:48.095Z,100003.30
2018-12-26T14:13:20.760Z,99995.63
2018-12-26T14:15:52.266Z,100002.53
2018-12-26T14:18:23.700Z,99992.75
2018-12-26T14:20:56.190Z,99999.05
2018-12-26T14:23:27.668Z,100001.41
2018-12-26T14:25:59.069Z,100001.41
2018-12-26T14:28:30.547Z,100003.81
2018-12-26T14:31:01.971Z,100001.86
2018-12-26T14:33:33.362Z,99997.22
2018-12-26T14:36:08.049Z,99998.32
2018-12-26T14:38:39.969Z,99995.86
2018-12-26T14:41:11.510Z,99995.91
2018-12-26T14:43:43.287Z,99994.88
2018-12-26T14:46:14.989Z,100003.37
2018-12-26T14:48:47.310Z,100003.50
2018-12-26T14:51:26.418Z,99992.77
2018-12-26T14:53:52.827Z,100000.13
2018-12-26T14:56:25.306Z,99996.23
2018-12-26T14:58:57.216Z,100000.55
2018-12-26T15:01:28.899Z,99988.48
2018-12-26T15:04:00.407Z,99994.53
2018-12-26T15:06:34.045Z,99997.41
2018-12-26T15:09:09.792Z,99993.20
2018-12-26T15:11:41.256Z,99993.72
2018-12-26T15:14:13.512Z,99994.34
2018-12-26T15:16:45.438Z,99993.00
2018-12-26T15:19:19.048Z,99991.75
2018-12-26T15:21:50.527Z,99999.44
2018-12-26T15:24:22.113Z,99998.17
2018-12-26T15:26:56.629Z,99993.30
2018-12-26T15:29:28.265Z,99993.69
2018-12-26T15:31:59.684Z,99996.73
2018-12-26T15:34:31.362Z,100004.52
2018-12-26T15:37:02.892Z,100005.58
2018-12-26T15:39:37.179Z,100001.38
2018-12-26T15:42:08.732Z,100002.58
2018-12-26T15:44:43.233Z,100009.41
2018-12-26T15:47:14.745Z,100011.71
2018-12-26T15:49:47.010Z,100010.05
2018-12-26T15:52:18.806Z,100006.75
2018-12-26T15:54:50.822Z,100010.50
2018-12-26T15:57:22.435Z,100011.44
2018-12-26T15:59:56.082Z,100011.08
2018-12-26T16:02:27.606Z,100013.31
2018-12-26T16:04:59.026Z,100011.29
2018-12-26T16:07:30.576Z,100008.77
2018-12-26T16:10:02.104Z,100008.82
2018-12-26T16:12:33.558Z,100009.83
2018-12-26T16:15:06.065Z,100001.14
2018-12-26T16:17:37.912Z,100006.39
2018-12-26T16:20:10.903Z,100008.66
2018-12-26T16:22:42.314Z,100009.98
2018-12-26T16:25:14.277Z,100011.78
2018-12-26T16:27:46.020Z,100008.70
2018-12-26T16:30:17.433Z,100012.41
2018-12-26T16:32:49.155Z,100015.04
2018-12-26T16:35:20.644Z,100015.50
2018-12-26T16:37:52.135Z,100013.73
2018-12-26T16:40:25.411Z,100016.84
2018-12-26T16:42:58.215Z,100003.81
2018-12-26T16:45:29.621Z,100006.52
2018-12-26T16:48:01.256Z,100016.16
2018-12-26T16:50:32.880Z,100011.36
2018-12-26T16:53:04.332Z,100016.69
2018-12-26T16:55:35.833Z,100007.20
2018-12-26T16:58:07.386Z,100008.97
2018-12-26T17:00:38.806Z,100013.77
2018-12-26T17:03:10.250Z,100010.73
2018-12-26T17:05:41.970Z,100012.00
2018-12-26T17:08:13.458Z,100008.52
2018-12-26T17:10:44.827Z,100013.31
2018-12-26T17:13:16.230Z,100018.00
2018-12-26T17:15:47.724Z,100022.68
2018-12-26T17:18:19.196Z,100023.09
2018-12-26T17:20:50.635Z,100021.86
2018-12-26T17:23:22.062Z,100020.91
2018-12-26T17:25:53.572Z,100020.79
2018-12-26T17:28:25.239Z,100020.62
2018-12-26T17:31:04.154Z,100021.38
2018-12-26T17:33:29.955Z,100028.72
2018-12-26T17:36:01.389Z,100019.48
2018-12-26T17:38:32.818Z,100022.86
2018-12-26T17:41:04.193Z,100025.04
2018-12-26T17:43:35.635Z,100031.61
2018-12-26T17:46:08.680Z,100026.81
2018-12-26T17:48:42.100Z,100027.76
2018-12-26T17:51:16.915Z,100030.80
2018-12-26T17:54:16.064Z,100027.77
2018-12-26T17:56:54.644Z,100033.87
2018-12-26T17:59:51.595Z,100031.56
2018-12-26T18:02:36.613Z,100032.42
2018-12-26T18:05:08.199Z,100039.08
2018-12-26T18:07:39.712Z,100038.23
2018-12-26T18:10:11.198Z,100032.11
2018-12-26T18:12:42.642Z,100037.14
2018-12-26T18:15:14.527Z,100036.28
2018-12-26T18:17:45.973Z,100037.59
2018-12-26T18:20:17.329Z,100033.70
2018-12-26T18:22:48.705Z,100038.19
2018-12-26T18:25:20.238Z,100039.17
2018-12-26T18:27:52.079Z,100041.38
2018-12-26T18:30:23.468Z,100040.47
2018-12-26T18:32:57.539Z,100036.54
2018-12-26T18:35:28.981Z,100041.79
2018-12-26T18:38:00.480Z,100023.83
2018-12-26T18:40:31.964Z,100023.41
2018-12-26T18:43:03.471Z,100028.17
2018-12-26T18:45:34.901Z,100019.93
2018-12-26T18:48:06.338Z,100022.19
2018-12-26T18:50:37.741Z,100020.02
2018-12-26T18:53:09.539Z,100016.94
2018-12-26T18:55:40.966Z,100013.41
2018-12-26T18:58:12.399Z,100008.61
2018-12-26T19:00:43.847Z,100015.21
2018-12-26T19:03:15.265Z,100010.50
2018-12-26T19:05:46.655Z,100015.45
2018-12-26T19:08:18.110Z,100011.62
2018-12-26T19:10:49.449Z,100016.87
2018-12-26T19:13:20.908Z,100011.73
2018-12-26T19:15:52.442Z,100020.08
2018-12-26T19:18:23.809Z,100009.14
2018-12-26T19:20:55.290Z,100009.63
2018-12-26T19:23:26.703Z,100013.20
2018-12-26T19:25:58.123Z,100011.45
2018-12-26T19:28:29.568Z,100006.20
2018-12-26T19:31:01.038Z,100010.62
2018-12-26T19:33:32.407Z,100011.06
2018-12-26T19:36:03.828Z,100012.38
2018-12-26T19:38:35.454Z,100008.47
2018-12-26T19:41:06.926Z,100004.58
2018-12-26T19:43:38.347Z,99998.47
2018-12-26T19:46:09.831Z,100002.78
2018-12-26T19:48:41.281Z,100002.37
2018-12-26T19:51:13.036Z,99996.30
2018-12-26T19:53:44.399Z,99990.19
2018-12-26T19:56:19.445Z,99995.02
2018-12-26T19:58:50.534Z,99988.06
2018-12-26T20:01:24.165Z,99982.41
2018-12-26T20:03:57.564Z,99979.44
2018-12-26T20:06:32.249Z,99972.88
2018-12-26T20:09:03.442Z,99966.86
2018-12-26T20:11:36.133Z,99969.98
2018-12-26T20:14:07.873Z,99966.96
2018-12-26T20:16:40.314Z,99964.73
2018-12-26T20:19:11.665Z,99955.54
2018-12-26T20:21:44.145Z,99962.45
2018-12-26T20:24:15.639Z,99963.77
2018-12-26T20:26:48.533Z,99959.45
2018-12-26T20:29:20.330Z,99961.56
2018-12-26T20:31:56.948Z,99957.58
2018-12-26T20:34:26.792Z,99954.13
2018-12-26T20:36:58.283Z,99952.81
2018-12-26T20:39:32.221Z,99955.06
2018-12-26T20:42:04.774Z,99951.14
2018-12-26T20:44:36.244Z,99945.90
2018-12-26T20:47:07.698Z,99951.50
2018-12-26T20:49:41.881Z,99947.56
2018-12-26T20:52:13.383Z,99943.99
2018-12-26T20:54:44.779Z,99939.20
2018-12-26T20:57:16.166Z,99944.86
2018-12-26T20:59:47.559Z,99943.64
2018-12-26T21:02:18.970Z,99943.22
2018-12-26T21:04:50.413Z,99939.32
2018-12-26T21:07:22.172Z,99938.88
2018-12-26T21:09:53.572Z,99936.70
2018-12-26T21:12:25.044Z,99936.77
2018-12-26T21:14:56.620Z,99938.52
2018-12-26T21:17:28.084Z,99940.30
2018-12-26T21:19:59.452Z,99932.02
2018-12-26T21:22:30.950Z,99922.91
2018-12-26T21:25:03.485Z,99925.95
2018-12-26T21:27:34.880Z,99928.59
2018-12-26T21:30:09.035Z,99921.23
2018-12-26T21:32:41.486Z,99921.70
2018-12-26T21:35:12.893Z,99928.56
2018-12-26T21:37:44.380Z,99928.98
2018-12-26T21:40:15.781Z,99923.73
2018-12-26T21:42:47.187Z,99920.68
2018-12-26T21:45:18.647Z,99930.73
2018-12-26T21:47:50.044Z,99922.91
2018-12-26T21:50:21.956Z,99922.05
2018-12-26T21:52:53.402Z,99916.36
2018-12-26T21:55:24.741Z,99915.52
2018-12-26T21:57:57.277Z,99919.03
2018-12-26T22:00:28.740Z,99914.69
2018-12-26T22:03:00.114Z,99916.41
2018-12-26T22:05:32.558Z,99913.34
2018-12-26T22:08:05.403Z,99909.48
2018-12-26T22:10:37.065Z,99911.20
2018-12-26T22:13:08.455Z,99903.34
2018-12-26T22:15:39.803Z,99905.54
2018-12-26T22:18:11.194Z,99898.13
2018-12-26T22:20:42.730Z,99896.75
2018-12-26T22:23:14.217Z,99899.31
2018-12-26T22:25:45.617Z,99898.68
2018-12-26T22:28:18.043Z,99903.75
2018-12-26T22:30:51.065Z,99894.14
2018-12-26T22:33:23.200Z,99893.95
2018-12-26T22:35:54.911Z,99897.36
2018-12-26T22:38:26.409Z,99890.19
2018-12-26T22:40:58.060Z,99884.85
2018-12-26T22:43:29.583Z,99877.84
2018-12-26T22:46:01.055Z,99874.23
2018-12-26T22:48:32.503Z,99868.98
2018-12-26T22:51:03.902Z,99868.14
2018-12-26T22:53:35.305Z,99866.88
2018-12-26T22:56:06.647Z,99867.83
2018-12-26T22:58:38.111Z,99866.17
2018-12-26T23:01:09.642Z,99856.07
2018-12-26T23:03:41.138Z,99853.44
2018-12-26T23:06:12.499Z,99845.58
2018-12-26T23:08:43.916Z,99842.23
2018-12-26T23:11:15.299Z,99843.06
2018-12-26T23:13:46.985Z,99837.66
2018-12-26T23:16:18.427Z,99838.56
2018-12-26T23:18:50.253Z,99826.64
2018-12-26T23:21:21.767Z,99835.88
2018-12-26T23:23:53.202Z,99826.59
2018-12-26T23:26:24.658Z,99827.50
2018-12-26T23:28:56.199Z,99832.45
2018-12-26T23:31:27.552Z,99829.62
2018-12-26T23:33:58.989Z,99829.67
2018-12-26T23:36:30.469Z,99830.58
2018-12-26T23:39:01.909Z,99839.30
2018-12-26T23:41:34.415Z,99833.47
2018-12-26T23:44:06.140Z,99827.36
2018-12-26T23:46:37.619Z,99829.57
2018-12-26T23:49:09.062Z,99830.48
2018-12-26T23:51:40.485Z,99820.39
2018-12-26T23:54:11.946Z,99820.95
2018-12-26T23:56:43.406Z,99809.13
2018-12-26T23:59:16.046Z,99808.58
